createdAt,value
2022-10-06T00:02:04.506Z,12.75
2022-10-06T00:04:33.138Z,13.20
2022-10-06T00:07:03.552Z,13.18
2022-10-06T00:09:33.577Z,12.69
2022-10-06T00:12:01.914Z,12.89
2022-10-06T00:14:30.634Z,13.18
2022-10-06T00:16:58.960Z,13.18
2022-10-06T00:19:27.178Z,13.19
2022-10-06T00:21:55.514Z,13.18
2022-10-06T00:24:24.117Z,13.19
2022-10-06T00:26:53.914Z,11.43
2022-10-06T00:29:23.296Z,13.16
2022-10-06T00:31:53.338Z,13.18
2022-10-06T00:34:21.748Z,12.33
2022-10-06T00:36:50.772Z,13.14
2022-10-06T00:39:20.010Z,13.11
2022-10-06T00:41:48.619Z,13.14
2022-10-06T00:44:18.305Z,13.14
2022-10-06T00:46:51.266Z,13.13
2022-10-06T00:49:24.651Z,12.68
2022-10-06T00:51:58.326Z,13.13
2022-10-06T00:54:31.172Z,13.16
2022-10-06T00:57:00.083Z,13.16
2022-10-06T00:59:32.102Z,11.97
2022-10-06T01:02:05.328Z,12.62
2022-10-06T01:04:36.258Z,13.15
2022-10-06T01:07:05.962Z,12.98
2022-10-06T01:09:35.479Z,13.17
2022-10-06T01:12:09.218Z,12.65
2022-10-06T01:14:41.412Z,13.02
2022-10-06T01:17:17.850Z,13.17
2022-10-06T01:19:53.495Z,13.14
2022-10-06T01:22:30.644Z,12.88
2022-10-06T01:24:59.527Z,13.18
2022-10-06T01:27:31.914Z,13.23
2022-10-06T01:30:01.533Z,13.36
2022-10-06T01:32:40.014Z,13.29
2022-10-06T01:35:10.869Z,13.13
2022-10-06T01:37:41.957Z,13.67
2022-10-06T01:40:11.636Z,13.69
2022-10-06T01:42:40.063Z,13.72
2022-10-06T01:45:09.708Z,13.79
2022-10-06T01:47:38.365Z,14.08
2022-10-06T01:50:08.363Z,13.78
2022-10-06T01:52:37.707Z,13.98
2022-10-06T01:55:09.290Z,13.73
2022-10-06T01:57:40.785Z,13.46
2022-10-06T02:00:12.419Z,13.98
2022-10-06T02:02:45.312Z,13.96
2022-10-06T02:05:15.750Z,13.16
2022-10-06T02:07:48.392Z,13.91
2022-10-06T02:10:19.780Z,13.85
2022-10-06T02:12:52.982Z,13.78
2022-10-06T02:15:23.298Z,13.01
2022-10-06T02:17:52.956Z,13.67
2022-10-06T02:20:22.309Z,13.81
2022-10-06T02:22:51.807Z,13.80
2022-10-06T02:25:21.497Z,13.76
2022-10-06T02:27:50.533Z,13.64
2022-10-06T02:30:18.992Z,13.71
2022-10-06T02:32:48.432Z,13.10
2022-10-06T02:35:17.135Z,13.88
2022-10-06T02:37:46.290Z,13.95
2022-10-06T02:40:18.956Z,13.66
2022-10-06T02:42:48.990Z,13.55
2022-10-06T02:45:20.351Z,13.81
2022-10-06T02:47:49.799Z,13.69
2022-10-06T02:50:18.238Z,14.03
2022-10-06T02:52:47.665Z,14.30
2022-10-06T02:55:15.935Z,14.52
2022-10-06T02:57:44.293Z,14.09
2022-10-06T03:00:15.973Z,14.30
2022-10-06T03:02:49.705Z,14.76
2022-10-06T03:05:18.250Z,14.36
2022-10-06T03:16:45.293Z,14.12
2022-10-06T03:19:22.573Z,14.16
2022-10-06T03:21:51.153Z,14.57
2022-10-06T03:24:19.438Z,14.55
2022-10-06T03:26:53.189Z,14.53
2022-10-06T03:29:22.262Z,14.35
2022-10-06T03:31:56.375Z,13.91
2022-10-06T03:34:24.649Z,14.29
2022-10-06T03:36:54.191Z,14.33
2022-10-06T03:39:25.112Z,14.47
2022-10-06T03:41:53.763Z,14.55
2022-10-06T03:44:22.834Z,14.51
2022-10-06T03:46:51.539Z,14.39
2022-10-06T03:49:21.637Z,13.68
2022-10-06T03:51:50.348Z,14.14
2022-10-06T03:54:24.317Z,14.05
2022-10-06T03:57:22.691Z,13.97
2022-10-06T03:59:52.271Z,13.92
2022-10-06T04:02:20.932Z,13.90
2022-10-06T04:04:50.651Z,13.64
2022-10-06T04:07:20.796Z,13.89
2022-10-06T04:09:51.901Z,13.89
2022-10-06T04:12:22.341Z,13.89
2022-10-06T04:14:57.790Z,13.95
2022-10-06T04:17:28.953Z,14.04
2022-10-06T04:19:58.722Z,14.06
2022-10-06T04:22:27.355Z,14.08
2022-10-06T04:24:55.816Z,13.96
2022-10-06T04:27:30.654Z,14.16
2022-10-06T04:30:12.887Z,14.13
2022-10-06T04:32:42.251Z,14.43
2022-10-06T04:35:12.554Z,13.99
2022-10-06T04:37:41.228Z,14.45
2022-10-06T04:40:11.655Z,14.24
2022-10-06T04:42:41.348Z,14.96
2022-10-06T04:45:14.186Z,14.75
2022-10-06T04:47:43.946Z,14.69
2022-10-06T04:50:13.685Z,14.01
2022-10-06T04:53:01.977Z,14.32
2022-10-06T04:55:31.210Z,14.85
2022-10-06T04:58:00.077Z,15.03
2022-10-06T05:00:29.331Z,15.08
2022-10-06T05:02:59.223Z,15.21
2022-10-06T05:05:29.295Z,15.32
2022-10-06T05:07:59.021Z,15.48
2022-10-06T05:10:28.609Z,13.93
2022-10-06T05:12:58.501Z,15.64
2022-10-06T05:15:28.317Z,15.18
2022-10-06T05:17:57.461Z,15.82
2022-10-06T05:20:26.173Z,15.91
2022-10-06T05:22:56.864Z,15.64
2022-10-06T05:25:25.442Z,15.86
2022-10-06T05:27:54.234Z,16.13
2022-10-06T05:30:23.122Z,16.21
2022-10-06T05:32:52.203Z,16.32
2022-10-06T05:35:21.315Z,16.42
2022-10-06T05:37:49.683Z,16.43
2022-10-06T05:40:19.881Z,16.71
2022-10-06T05:42:48.336Z,16.65
2022-10-06T05:45:17.429Z,15.17
2022-10-06T05:47:46.027Z,16.41
2022-10-06T05:50:19.519Z,16.86
2022-10-06T05:52:49.303Z,16.81
2022-10-06T05:55:18.979Z,16.54
2022-10-06T05:57:47.578Z,16.33
2022-10-06T06:00:16.419Z,16.09
2022-10-06T06:02:47.084Z,16.05
2022-10-06T06:05:15.900Z,15.71
2022-10-06T06:07:44.152Z,16.08
2022-10-06T06:10:12.488Z,15.89
2022-10-06T06:12:42.348Z,16.08
2022-10-06T06:15:48.654Z,14.55
2022-10-06T06:18:17.108Z,16.20
2022-10-06T06:20:46.142Z,16.14
2022-10-06T06:23:16.424Z,15.30
2022-10-06T06:25:45.125Z,15.80
2022-10-06T06:28:20.142Z,16.17
2022-10-06T06:30:48.821Z,16.31
2022-10-06T06:33:17.605Z,15.85
2022-10-06T06:35:48.708Z,15.08
2022-10-06T06:38:19.175Z,16.24
2022-10-06T06:40:51.000Z,16.20
2022-10-06T06:43:21.076Z,16.12
2022-10-06T06:46:05.583Z,16.02
2022-10-06T06:48:47.907Z,15.94
2022-10-06T06:51:16.752Z,15.55
2022-10-06T06:53:45.721Z,15.94
2022-10-06T06:56:15.032Z,16.03
2022-10-06T06:58:49.012Z,15.95
2022-10-06T07:01:21.151Z,15.83
2022-10-06T07:03:57.935Z,16.04
2022-10-06T07:06:32.155Z,16.35
2022-10-06T07:09:03.748Z,16.39
2022-10-06T07:11:34.873Z,16.15
2022-10-06T07:14:10.174Z,16.45
2022-10-06T07:16:55.940Z,16.44
2022-10-06T07:19:41.939Z,16.36
2022-10-06T07:22:35.640Z,16.29
2022-10-06T07:25:18.634Z,16.31
2022-10-06T07:27:51.976Z,15.76
2022-10-06T07:30:29.409Z,16.38
2022-10-06T07:33:08.637Z,16.59
2022-10-06T07:35:40.739Z,16.71
2022-10-06T07:38:09.674Z,16.84
2022-10-06T07:40:50.635Z,16.79
2022-10-06T07:43:32.125Z,16.83
2022-10-06T07:46:02.943Z,16.65
2022-10-06T07:48:38.285Z,17.19
2022-10-06T07:51:14.850Z,17.20
2022-10-06T07:53:46.809Z,17.30
2022-10-06T07:56:35.056Z,17.58
2022-10-06T07:59:03.424Z,16.99
2022-10-06T08:01:33.229Z,17.69
2022-10-06T08:04:02.452Z,17.86
2022-10-06T08:06:30.684Z,17.74
2022-10-06T08:08:58.979Z,17.77
2022-10-06T08:11:27.287Z,17.58
2022-10-06T08:13:55.979Z,17.75
2022-10-06T08:16:30.473Z,16.29
2022-10-06T08:19:01.803Z,16.69
2022-10-06T08:21:34.452Z,17.47
2022-10-06T08:24:03.250Z,17.53
2022-10-06T08:26:33.220Z,17.58
2022-10-06T08:29:03.472Z,17.76
2022-10-06T08:31:32.927Z,17.87
2022-10-06T08:34:02.700Z,17.97
2022-10-06T08:36:32.627Z,18.08
2022-10-06T08:39:01.569Z,18.22
2022-10-06T08:41:43.124Z,18.06
2022-10-06T08:44:26.669Z,17.53
2022-10-06T08:47:01.241Z,17.99
2022-10-06T08:49:39.945Z,18.05
2022-10-06T08:52:25.584Z,18.01
2022-10-06T08:55:14.971Z,17.81
2022-10-06T08:58:22.845Z,17.40
2022-10-06T09:00:56.735Z,17.06
2022-10-06T09:03:31.206Z,16.95
2022-10-06T09:06:15.494Z,17.13
2022-10-06T09:08:54.710Z,17.27
2022-10-06T09:11:47.776Z,17.04
2022-10-06T09:14:24.562Z,17.30
2022-10-06T09:17:00.734Z,17.62
2022-10-06T09:19:41.185Z,18.05
2022-10-06T09:22:19.793Z,18.27
2022-10-06T09:24:50.669Z,18.02
2022-10-06T09:27:23.199Z,18.02
2022-10-06T09:29:54.377Z,17.76
2022-10-06T09:32:27.216Z,17.64
2022-10-06T09:34:59.727Z,17.09
2022-10-06T09:37:29.975Z,17.05
2022-10-06T09:39:58.668Z,17.04
2022-10-06T09:42:34.595Z,16.89
2022-10-06T09:45:06.633Z,16.88
2022-10-06T09:47:45.100Z,16.72
2022-10-06T09:50:25.163Z,16.88
2022-10-06T09:53:11.514Z,16.72
2022-10-06T09:55:51.352Z,16.73
2022-10-06T09:58:34.274Z,16.51
2022-10-06T10:01:06.907Z,16.19
2022-10-06T10:04:15.390Z,16.13
2022-10-06T10:06:41.851Z,16.11
2022-10-06T10:09:29.413Z,16.02
2022-10-06T10:12:31.134Z,15.92
2022-10-06T10:15:24.227Z,15.88
2022-10-06T10:17:55.716Z,15.92
2022-10-06T10:20:34.260Z,15.99
2022-10-06T10:23:08.390Z,16.17
2022-10-06T10:26:08.090Z,15.99
2022-10-06T10:29:33.112Z,16.30
2022-10-06T10:32:15.423Z,16.58
2022-10-06T10:35:04.324Z,16.71
2022-10-06T10:37:44.236Z,16.24
2022-10-06T10:40:28.849Z,16.57
2022-10-06T10:43:13.375Z,16.97
2022-10-06T10:45:48.337Z,17.16
2022-10-06T10:48:25.375Z,17.07
2022-10-06T10:51:08.062Z,17.34
2022-10-06T10:53:47.879Z,17.27
2022-10-06T10:56:20.815Z,17.26
2022-10-06T10:58:57.676Z,17.21
2022-10-06T11:01:40.296Z,17.48
2022-10-06T11:04:13.843Z,17.66
2022-10-06T11:07:03.673Z,17.84
2022-10-06T11:09:44.458Z,18.28
2022-10-06T11:12:24.838Z,18.18
2022-10-06T11:15:03.534Z,18.61
2022-10-06T11:17:47.072Z,18.39
2022-10-06T11:20:44.078Z,18.15
2022-10-06T11:23:50.914Z,17.91
2022-10-06T11:26:42.007Z,17.75
2022-10-06T11:29:33.938Z,17.69
2022-10-06T11:32:19.755Z,17.63
2022-10-06T11:34:51.039Z,17.47
2022-10-06T11:37:35.074Z,17.26
2022-10-06T11:40:29.367Z,17.19
2022-10-06T11:43:09.643Z,16.88
2022-10-06T11:45:50.042Z,16.54
2022-10-06T11:48:27.978Z,16.82
2022-10-06T11:50:56.995Z,16.82
2022-10-06T11:53:40.487Z,16.95
2022-10-06T11:56:40.987Z,17.22
2022-10-06T11:59:31.516Z,17.23
2022-10-06T12:02:02.198Z,17.27
2022-10-06T12:04:32.130Z,17.29
2022-10-06T12:07:03.223Z,17.44
2022-10-06T12:09:51.915Z,17.35
2022-10-06T12:13:06.726Z,17.25
2022-10-06T12:19:19.503Z,17.21
2022-10-06T12:22:01.066Z,17.16
2022-10-06T12:24:43.674Z,17.35
2022-10-06T12:27:40.742Z,17.46
2022-10-06T12:30:24.655Z,17.47
2022-10-06T12:32:58.179Z,17.45
2022-10-06T12:35:34.084Z,17.40
2022-10-06T12:38:08.139Z,17.40
2022-10-06T12:40:55.180Z,17.16
2022-10-06T12:43:56.947Z,17.29
2022-10-06T12:46:42.415Z,17.22
2022-10-06T12:49:47.185Z,17.22
2022-10-06T12:52:43.282Z,16.87
2022-10-06T12:55:35.881Z,15.96
2022-10-06T12:58:04.205Z,17.21
2022-10-06T13:00:39.644Z,17.28
2022-10-06T13:03:16.418Z,17.20
2022-10-06T13:05:53.942Z,17.40
2022-10-06T13:08:25.991Z,17.32
2022-10-06T13:11:19.645Z,17.39
2022-10-06T13:13:49.877Z,17.41
2022-10-06T13:16:22.175Z,17.34
2022-10-06T13:18:56.149Z,17.38
2022-10-06T13:21:24.780Z,17.43
2022-10-06T13:23:53.294Z,17.34
2022-10-06T13:26:26.353Z,17.24
2022-10-06T13:28:56.141Z,17.24
2022-10-06T13:31:27.330Z,17.42
2022-10-06T13:34:01.150Z,16.92
2022-10-06T13:36:31.900Z,17.10
2022-10-06T13:39:00.732Z,17.01
2022-10-06T13:41:35.216Z,16.90
2022-10-06T13:44:23.178Z,17.02
2022-10-06T13:46:56.008Z,16.91
2022-10-06T13:49:30.564Z,17.07
2022-10-06T13:52:08.791Z,17.21
2022-10-06T13:54:46.996Z,17.22
2022-10-06T13:57:37.633Z,17.34
2022-10-06T14:00:18.623Z,16.90
2022-10-06T14:02:50.293Z,17.03
2022-10-06T14:05:26.793Z,16.92
2022-10-06T14:08:00.654Z,16.53
2022-10-06T14:10:37.729Z,16.79
2022-10-06T14:13:14.518Z,15.88
2022-10-06T14:15:49.760Z,16.54
2022-10-06T14:18:24.303Z,16.80
2022-10-06T14:20:55.795Z,16.91
2022-10-06T14:23:44.727Z,16.84
2022-10-06T14:26:15.074Z,16.53
2022-10-06T14:28:51.542Z,16.13
2022-10-06T14:31:20.975Z,16.90
2022-10-06T14:33:52.536Z,16.98
2022-10-06T14:36:25.738Z,16.49
2022-10-06T14:38:56.472Z,16.90
2022-10-06T14:41:27.979Z,16.64
2022-10-06T14:44:01.581Z,16.79
2022-10-06T14:46:31.015Z,16.52
2022-10-06T14:48:59.615Z,16.64
2022-10-06T14:51:30.054Z,16.35
2022-10-06T14:54:00.988Z,16.09
2022-10-06T14:56:32.395Z,16.66
2022-10-06T14:59:05.738Z,16.71
2022-10-06T15:01:36.497Z,16.55
2022-10-06T15:04:07.217Z,16.49
2022-10-06T15:06:53.319Z,16.42
2022-10-06T15:09:22.054Z,16.34
2022-10-06T15:11:50.450Z,16.32
2022-10-06T15:14:20.166Z,16.23
2022-10-06T15:16:48.386Z,15.94
2022-10-06T15:19:17.193Z,16.20
2022-10-06T15:21:46.168Z,15.74
2022-10-06T15:24:16.932Z,15.82
2022-10-06T15:27:04.376Z,16.06
2022-10-06T15:29:35.757Z,15.97
2022-10-06T15:32:06.513Z,15.84
2022-10-06T15:34:37.596Z,15.33
2022-10-06T15:37:06.544Z,15.64
2022-10-06T15:39:38.110Z,15.09
2022-10-06T15:42:10.525Z,15.64
2022-10-06T15:44:40.302Z,15.51
2022-10-06T15:47:08.883Z,15.36
2022-10-06T15:49:41.675Z,15.28
2022-10-06T15:52:12.934Z,15.23
2022-10-06T15:54:43.788Z,15.21
2022-10-06T15:57:20.336Z,14.98
2022-10-06T15:59:50.275Z,15.07
2022-10-06T16:02:21.016Z,14.94
2022-10-06T16:05:17.363Z,14.05
2022-10-06T16:07:45.681Z,14.33
2022-10-06T16:10:13.969Z,12.88
2022-10-06T16:12:42.622Z,14.34
2022-10-06T16:15:12.600Z,14.17
2022-10-06T16:17:40.941Z,13.87
2022-10-06T16:20:11.613Z,13.64
2022-10-06T16:22:40.293Z,13.81
2022-10-06T16:25:09.770Z,13.57
2022-10-06T16:27:39.569Z,13.54
2022-10-06T16:30:12.296Z,13.07
2022-10-06T16:32:41.273Z,13.13
2022-10-06T16:35:14.772Z,12.92
2022-10-06T16:37:49.869Z,12.71
2022-10-06T16:40:18.982Z,12.55
2022-10-06T16:42:47.533Z,12.40
2022-10-06T16:45:17.454Z,12.29
2022-10-06T16:47:45.933Z,12.08
2022-10-06T16:50:14.487Z,12.04
2022-10-06T16:52:43.138Z,11.93
2022-10-06T16:55:11.433Z,11.36
2022-10-06T16:57:39.750Z,11.79
2022-10-06T17:00:09.898Z,11.70
2022-10-06T17:02:41.242Z,11.61
2022-10-06T17:05:10.514Z,11.52
2022-10-06T17:07:39.258Z,11.41
2022-10-06T17:10:20.119Z,10.80
2022-10-06T17:12:49.340Z,11.29
2022-10-06T17:15:17.914Z,11.31
2022-10-06T17:17:47.852Z,11.34
2022-10-06T17:20:16.608Z,11.24
2022-10-06T17:22:44.991Z,10.80
2022-10-06T17:25:14.209Z,11.15
2022-10-06T17:27:42.697Z,11.10
2022-10-06T17:30:12.260Z,11.06
2022-10-06T17:32:41.354Z,11.11
2022-10-06T17:35:11.479Z,11.16
2022-10-06T17:37:40.578Z,11.18
2022-10-06T17:40:10.161Z,11.17
2022-10-06T17:42:38.900Z,10.89
2022-10-06T17:45:08.399Z,10.99
2022-10-06T17:47:37.094Z,10.86
2022-10-06T17:50:10.559Z,10.75
2022-10-06T17:52:39.625Z,10.68
2022-10-06T17:55:08.918Z,10.39
2022-10-06T17:57:37.361Z,10.49
2022-10-06T18:00:07.580Z,10.72
2022-10-06T18:02:41.623Z,10.65
2022-10-06T18:05:11.779Z,10.64
2022-10-06T18:07:40.437Z,10.61
2022-10-06T18:10:27.262Z,10.57
2022-10-06T18:12:56.141Z,10.56
2022-10-06T18:15:24.556Z,10.46
2022-10-06T18:17:53.350Z,10.51
2022-10-06T18:20:23.153Z,10.03
2022-10-06T18:22:51.457Z,10.50
2022-10-06T18:25:24.470Z,10.40
2022-10-06T18:27:55.991Z,10.37
2022-10-06T18:30:29.212Z,10.31
2022-10-06T18:35:29.837Z,10.27
2022-10-06T18:38:46.854Z,9.99
2022-10-06T18:41:19.135Z,10.00
2022-10-06T18:43:47.919Z,10.09
2022-10-06T18:46:35.615Z,9.83
2022-10-06T18:49:10.581Z,9.92
2022-10-06T18:51:44.335Z,9.72
2022-10-06T18:54:15.569Z,9.68
2022-10-06T18:56:50.006Z,9.64
2022-10-06T18:59:20.068Z,9.97
2022-10-06T19:01:49.734Z,10.02
2022-10-06T19:04:21.410Z,9.81
2022-10-06T19:06:56.484Z,9.66
2022-10-06T19:09:26.472Z,9.45
2022-10-06T19:11:59.154Z,9.75
2022-10-06T19:14:31.441Z,9.75
2022-10-06T19:17:08.212Z,9.72
2022-10-06T19:19:37.266Z,9.63
2022-10-06T19:22:07.782Z,9.54
2022-10-06T19:24:40.145Z,9.12
2022-10-06T19:27:12.328Z,9.45
2022-10-06T19:29:45.657Z,9.47
2022-10-06T19:32:18.002Z,9.48
2022-10-06T19:34:48.494Z,9.57
2022-10-06T19:37:18.350Z,9.59
2022-10-06T19:39:50.252Z,9.48
2022-10-06T19:42:38.302Z,8.77
2022-10-06T19:45:09.697Z,9.37
2022-10-06T19:47:38.394Z,9.34
2022-10-06T19:50:12.096Z,9.27
2022-10-06T19:52:43.357Z,8.91
2022-10-06T19:55:12.119Z,9.18
2022-10-06T19:57:40.843Z,9.16
2022-10-06T20:00:11.383Z,9.12
2022-10-06T20:02:43.893Z,9.08
2022-10-06T20:05:14.926Z,9.04
2022-10-06T20:07:47.334Z,9.00
2022-10-06T20:10:18.254Z,8.63
2022-10-06T20:12:47.051Z,8.88
2022-10-06T20:15:15.722Z,8.85
2022-10-06T20:17:45.552Z,8.86
2022-10-06T20:20:15.247Z,8.89
2022-10-06T20:22:45.520Z,8.58
2022-10-06T20:25:14.123Z,8.80
2022-10-06T20:27:43.811Z,8.74
2022-10-06T20:30:13.419Z,8.28
2022-10-06T20:32:42.478Z,7.97
2022-10-06T20:35:11.189Z,8.59
2022-10-06T20:37:42.030Z,8.56
2022-10-06T20:40:29.946Z,8.51
2022-10-06T20:42:59.634Z,8.48
2022-10-06T20:45:29.769Z,8.46
2022-10-06T20:48:00.125Z,8.43
2022-10-06T20:50:31.333Z,8.28
2022-10-06T20:53:00.017Z,8.35
2022-10-06T20:55:31.015Z,8.21
2022-10-06T20:57:59.685Z,8.26
2022-10-06T21:00:28.206Z,8.23
2022-10-06T21:02:57.187Z,8.24
2022-10-06T21:05:25.808Z,8.23
2022-10-06T21:07:54.154Z,7.55
2022-10-06T21:10:22.978Z,7.98
2022-10-06T21:12:52.628Z,7.92
2022-10-06T21:15:21.853Z,8.22
2022-10-06T21:17:50.863Z,8.29
2022-10-06T21:20:20.884Z,8.25
2022-10-06T21:22:49.805Z,8.17
2022-10-06T21:25:18.407Z,8.13
2022-10-06T21:27:48.085Z,8.13
2022-10-06T21:30:17.979Z,7.91
2022-10-06T21:32:46.582Z,8.12
2022-10-06T21:35:15.193Z,8.05
2022-10-06T21:37:50.992Z,8.03
2022-10-06T21:40:19.657Z,8.02
2022-10-06T21:42:48.223Z,7.99
2022-10-06T21:45:19.369Z,7.79
2022-10-06T21:47:49.672Z,7.91
2022-10-06T21:50:18.346Z,7.90
2022-10-06T21:52:46.979Z,7.87
2022-10-06T21:55:17.253Z,7.86
2022-10-06T21:57:47.217Z,7.84
2022-10-06T22:00:21.173Z,7.85
2022-10-06T22:02:49.899Z,7.85
2022-10-06T22:05:18.482Z,7.84
2022-10-06T22:07:47.437Z,7.79
2022-10-06T22:10:17.446Z,7.77
2022-10-06T22:12:46.124Z,7.74
2022-10-06T22:15:14.749Z,7.73
2022-10-06T22:17:44.696Z,7.78
2022-10-06T22:20:13.619Z,7.73
2022-10-06T22:22:43.443Z,7.69
2022-10-06T22:25:12.094Z,7.65
2022-10-06T22:27:40.733Z,7.58
2022-10-06T22:30:11.207Z,7.55
2022-10-06T22:32:40.216Z,7.52
2022-10-06T22:35:10.808Z,7.12
2022-10-06T22:37:39.442Z,7.51
2022-10-06T22:40:10.086Z,7.49
2022-10-06T22:42:40.393Z,7.45
2022-10-06T22:45:09.484Z,7.42
2022-10-06T22:47:38.044Z,7.41
2022-10-06T22:50:09.367Z,7.14
2022-10-06T22:52:37.952Z,7.37
2022-10-06T22:55:07.834Z,6.48
2022-10-06T22:57:44.013Z,7.29
2022-10-06T23:00:14.115Z,7.29
2022-10-06T23:02:44.725Z,7.26
2022-10-06T23:05:14.570Z,7.01
2022-10-06T23:07:43.536Z,7.23
2022-10-06T23:10:12.225Z,7.25
2022-10-06T23:12:43.157Z,7.29
2022-10-06T23:15:13.880Z,7.26
2022-10-06T23:17:44.294Z,7.21
2022-10-06T23:20:15.997Z,6.18
2022-10-06T23:22:44.882Z,7.09
2022-10-06T23:25:14.009Z,7.11
2022-10-06T23:27:43.029Z,7.09
2022-10-06T23:30:14.453Z,6.26
2022-10-06T23:32:43.081Z,7.06
2022-10-06T23:35:13.373Z,7.05
2022-10-06T23:37:43.669Z,6.92
2022-10-06T23:40:12.738Z,7.03
2022-10-06T23:42:45.353Z,7.01
2022-10-06T23:45:13.990Z,7.00
2022-10-06T23:47:45.595Z,6.98
2022-10-06T23:50:15.836Z,6.98
2022-10-06T23:52:44.467Z,6.98
2022-10-06T23:55:13.047Z,7.00
2022-10-06T23:57:43.233Z,7.01
